sensor_id;sensor_type;location;lat;lon;timestamp;temperature;humidity
22337;DHT22;14992;50.844;4.418;2024-01-06T00:01:32;7.70;99.90
22337;DHT22;14992;50.844;4.418;2024-01-06T00:04:01;7.80;99.90
22337;DHT22;14992;50.844;4.418;2024-01-06T00:06:30;7.90;99.90
22337;DHT22;14992;50.844;4.418;2024-01-06T00:08:59;7.90;99.90
22337;DHT22;14992;50.844;4.418;2024-01-06T00:11:28;7.90;99.90
22337;DHT22;14992;50.844;4.418;2024-01-06T00:13:57;7.80;99.90
22337;DHT22;14992;50.844;4.418;2024-01-06T00:16:26;7.80;99.90
22337;DHT22;14992;50.844;4.418;2024-01-06T00:18:57;7.90;99.90
22337;DHT22;14992;50.844;4.418;2024-01-06T00:21:27;7.90;99.90
22337;DHT22;14992;50.844;4.418;2024-01-06T00:23:56;8.00;99.90
22337;DHT22;14992;50.844;4.418;2024-01-06T00:26:25;7.90;99.90
22337;DHT22;14992;50.844;4.418;2024-01-06T00:28:54;7.90;99.90
22337;DHT22;14992;50.844;4.418;2024-01-06T00:31:23;7.90;99.90
22337;DHT22;14992;50.844;4.418;2024-01-06T00:33:52;7.90;99.90
22337;DHT22;14992;50.844;4.418;2024-01-06T00:36:22;7.90;99.90
22337;DHT22;14992;50.844;4.418;2024-01-06T00:38:51;7.90;99.90
22337;DHT22;14992;50.844;4.418;2024-01-06T00:41:20;7.90;99.90
22337;DHT22;14992;50.844;4.418;2024-01-06T00:43:48;8.00;99.90
22337;DHT22;14992;50.844;4.418;2024-01-06T00:46:17;7.90;99.90
22337;DHT22;14992;50.844;4.418;2024-01-06T00:48:46;7.80;99.90
22337;DHT22;14992;50.844;4.418;2024-01-06T00:51:15;7.90;99.90
22337;DHT22;14992;50.844;4.418;2024-01-06T00:53:46;7.90;99.90
22337;DHT22;14992;50.844;4.418;2024-01-06T00:56:15;7.80;99.90
22337;DHT22;14992;50.844;4.418;2024-01-06T00:58:44;7.80;99.90
22337;DHT22;14992;50.844;4.418;2024-01-06T01:01:12;7.90;99.90
22337;DHT22;14992;50.844;4.418;2024-01-06T01:03:41;7.90;99.90
22337;DHT22;14992;50.844;4.418;2024-01-06T01:06:10;7.90;99.90
22337;DHT22;14992;50.844;4.418;2024-01-06T01:08:39;7.80;99.90
22337;DHT22;14992;50.844;4.418;2024-01-06T01:11:10;7.90;99.90
22337;DHT22;14992;50.844;4.418;2024-01-06T01:13:38;7.90;99.90
22337;DHT22;14992;50.844;4.418;2024-01-06T01:16:07;7.90;99.90
22337;DHT22;14992;50.844;4.418;2024-01-06T01:18:36;7.80;99.90
22337;DHT22;14992;50.844;4.418;2024-01-06T01:21:05;7.90;99.90
22337;DHT22;14992;50.844;4.418;2024-01-06T01:23:35;7.80;99.90
22337;DHT22;14992;50.844;4.418;2024-01-06T01:26:04;7.80;99.90
22337;DHT22;14992;50.844;4.418;2024-01-06T01:28:35;7.70;99.90
22337;DHT22;14992;50.844;4.418;2024-01-06T01:31:04;7.70;99.90
22337;DHT22;14992;50.844;4.418;2024-01-06T01:33:33;7.60;99.90
22337;DHT22;14992;50.844;4.418;2024-01-06T01:36:02;7.60;99.90
22337;DHT22;14992;50.844;4.418;2024-01-06T01:38:31;7.60;99.90
22337;DHT22;14992;50.844;4.418;2024-01-06T01:40:59;7.60;99.90
22337;DHT22;14992;50.844;4.418;2024-01-06T01:43:28;7.60;99.90
22337;DHT22;14992;50.844;4.418;2024-01-06T01:45:59;7.70;99.90
22337;DHT22;14992;50.844;4.418;2024-01-06T01:48:29;7.70;99.90
22337;DHT22;14992;50.844;4.418;2024-01-06T01:50:59;7.70;99.90
22337;DHT22;14992;50.844;4.418;2024-01-06T01:53:27;7.70;99.90
22337;DHT22;14992;50.844;4.418;2024-01-06T01:55:56;7.70;99.90
22337;DHT22;14992;50.844;4.418;2024-01-06T01:58:25;7.70;99.90
22337;DHT22;14992;50.844;4.418;2024-01-06T02:00:54;7.70;99.90
22337;DHT22;14992;50.844;4.418;2024-01-06T02:03:26;7.70;99.90
22337;DHT22;14992;50.844;4.418;2024-01-06T02:05:55;7.60;99.90
22337;DHT22;14992;50.844;4.418;2024-01-06T02:08:24;7.70;99.90
22337;DHT22;14992;50.844;4.418;2024-01-06T02:10:54;7.70;99.90
22337;DHT22;14992;50.844;4.418;2024-01-06T02:13:23;7.80;99.90
22337;DHT22;14992;50.844;4.418;2024-01-06T02:15:52;7.70;99.90
22337;DHT22;14992;50.844;4.418;2024-01-06T02:18:22;7.80;99.90
22337;DHT22;14992;50.844;4.418;2024-01-06T02:20:53;7.70;99.90
22337;DHT22;14992;50.844;4.418;2024-01-06T02:23:27;7.70;99.90
22337;DHT22;14992;50.844;4.418;2024-01-06T02:25:56;7.70;99.90
22337;DHT22;14992;50.844;4.418;2024-01-06T02:28:25;7.70;99.90
22337;DHT22;14992;50.844;4.418;2024-01-06T02:30:54;7.70;99.90
22337;DHT22;14992;50.844;4.418;2024-01-06T02:33:23;7.70;99.90
22337;DHT22;14992;50.844;4.418;2024-01-06T02:35:52;7.70;99.90
22337;DHT22;14992;50.844;4.418;2024-01-06T02:38:22;7.70;99.90
22337;DHT22;14992;50.844;4.418;2024-01-06T02:40:52;7.80;99.90
22337;DHT22;14992;50.844;4.418;2024-01-06T02:43:21;7.80;99.90
22337;DHT22;14992;50.844;4.418;2024-01-06T02:45:51;7.70;99.90
22337;DHT22;14992;50.844;4.418;2024-01-06T02:48:20;7.80;99.90
22337;DHT22;14992;50.844;4.418;2024-01-06T02:50:49;7.80;99.90
22337;DHT22;14992;50.844;4.418;2024-01-06T02:53:18;7.90;99.90
22337;DHT22;14992;50.844;4.418;2024-01-06T02:55:47;7.90;99.90
22337;DHT22;14992;50.844;4.418;2024-01-06T02:58:17;7.90;99.90
22337;DHT22;14992;50.844;4.418;2024-01-06T03:00:46;8.00;99.90
22337;DHT22;14992;50.844;4.418;2024-01-06T03:03:15;8.00;99.90
22337;DHT22;14992;50.844;4.418;2024-01-06T03:05:44;8.00;99.90
22337;DHT22;14992;50.844;4.418;2024-01-06T03:08:16;8.00;99.90
22337;DHT22;14992;50.844;4.418;2024-01-06T03:10:45;8.00;99.90
22337;DHT22;14992;50.844;4.418;2024-01-06T03:13:15;8.10;99.90
22337;DHT22;14992;50.844;4.418;2024-01-06T03:15:45;8.00;99.90
22337;DHT22;14992;50.844;4.418;2024-01-06T03:18:14;8.00;99.90
22337;DHT22;14992;50.844;4.418;2024-01-06T03:20:43;8.00;99.90
22337;DHT22;14992;50.844;4.418;2024-01-06T03:23:12;7.90;99.90
22337;DHT22;14992;50.844;4.418;2024-01-06T03:25:41;7.90;99.90
22337;DHT22;14992;50.844;4.418;2024-01-06T03:28:10;7.90;99.90
22337;DHT22;14992;50.844;4.418;2024-01-06T03:30:38;7.90;99.90
22337;DHT22;14992;50.844;4.418;2024-01-06T03:33:09;8.00;99.90
22337;DHT22;14992;50.844;4.418;2024-01-06T03:35:40;8.00;99.90
22337;DHT22;14992;50.844;4.418;2024-01-06T03:38:09;7.90;99.90
22337;DHT22;14992;50.844;4.418;2024-01-06T03:40:37;7.80;99.90
22337;DHT22;14992;50.844;4.418;2024-01-06T03:43:06;7.80;99.90
22337;DHT22;14992;50.844;4.418;2024-01-06T03:45:36;7.80;99.90
22337;DHT22;14992;50.844;4.418;2024-01-06T03:48:06;7.80;99.90
22337;DHT22;14992;50.844;4.418;2024-01-06T03:50:37;7.80;99.90
22337;DHT22;14992;50.844;4.418;2024-01-06T03:53:05;7.90;99.90
22337;DHT22;14992;50.844;4.418;2024-01-06T03:55:34;7.80;99.90
22337;DHT22;14992;50.844;4.418;2024-01-06T03:58:03;7.80;99.90
22337;DHT22;14992;50.844;4.418;2024-01-06T04:00:33;7.70;99.90
22337;DHT22;14992;50.844;4.418;2024-01-06T04:03:02;7.70;99.90
22337;DHT22;14992;50.844;4.418;2024-01-06T04:05:33;7.70;99.90
22337;DHT22;14992;50.844;4.418;2024-01-06T04:08:03;7.80;99.90
22337;DHT22;14992;50.844;4.418;2024-01-06T04:10:32;7.90;99.90
22337;DHT22;14992;50.844;4.418;2024-01-06T04:13:01;8.00;99.90
22337;DHT22;14992;50.844;4.418;2024-01-06T04:15:30;7.90;99.90
22337;DHT22;14992;50.844;4.418;2024-01-06T04:18:02;7.80;99.90
22337;DHT22;14992;50.844;4.418;2024-01-06T04:20:32;7.90;99.90
22337;DHT22;14992;50.844;4.418;2024-01-06T04:23:02;7.80;99.90
22337;DHT22;14992;50.844;4.418;2024-01-06T04:25:31;7.90;99.90
22337;DHT22;14992;50.844;4.418;2024-01-06T04:28:00;8.00;99.90
22337;DHT22;14992;50.844;4.418;2024-01-06T04:30:29;7.90;99.90
22337;DHT22;14992;50.844;4.418;2024-01-06T04:32:58;7.90;99.90
22337;DHT22;14992;50.844;4.418;2024-01-06T04:35:27;7.80;99.90
22337;DHT22;14992;50.844;4.418;2024-01-06T04:37:56;7.90;99.90
22337;DHT22;14992;50.844;4.418;2024-01-06T04:40:26;7.90;99.90
22337;DHT22;14992;50.844;4.418;2024-01-06T04:42:55;8.00;99.90
22337;DHT22;14992;50.844;4.418;2024-01-06T04:45:24;8.00;99.90
22337;DHT22;14992;50.844;4.418;2024-01-06T04:47:53;7.90;99.90
22337;DHT22;14992;50.844;4.418;2024-01-06T04:50:22;8.00;99.90
22337;DHT22;14992;50.844;4.418;2024-01-06T04:52:51;8.00;99.90
22337;DHT22;14992;50.844;4.418;2024-01-06T04:55:19;7.90;99.90
22337;DHT22;14992;50.844;4.418;2024-01-06T04:57:50;7.90;99.90
22337;DHT22;14992;50.844;4.418;2024-01-06T05:00:20;7.90;99.90
22337;DHT22;14992;50.844;4.418;2024-01-06T05:02:49;8.00;99.90
22337;DHT22;14992;50.844;4.418;2024-01-06T05:05:18;8.00;99.90
22337;DHT22;14992;50.844;4.418;2024-01-06T05:07:47;7.90;99.90
22337;DHT22;14992;50.844;4.418;2024-01-06T05:10:16;7.80;99.90
22337;DHT22;14992;50.844;4.418;2024-01-06T05:12:44;7.80;99.90
22337;DHT22;14992;50.844;4.418;2024-01-06T05:15:15;7.70;99.90
22337;DHT22;14992;50.844;4.418;2024-01-06T05:17:45;7.70;99.90
22337;DHT22;14992;50.844;4.418;2024-01-06T05:20:14;7.80;99.90
22337;DHT22;14992;50.844;4.418;2024-01-06T05:22:43;7.80;99.90
22337;DHT22;14992;50.844;4.418;2024-01-06T05:25:12;7.80;99.90
22337;DHT22;14992;50.844;4.418;2024-01-06T05:27:41;7.70;99.90
22337;DHT22;14992;50.844;4.418;2024-01-06T05:30:10;7.70;99.90
22337;DHT22;14992;50.844;4.418;2024-01-06T05:32:40;7.80;99.90
22337;DHT22;14992;50.844;4.418;2024-01-06T05:35:09;7.90;99.90
22337;DHT22;14992;50.844;4.418;2024-01-06T05:37:38;8.00;99.90
22337;DHT22;14992;50.844;4.418;2024-01-06T05:40:08;7.90;99.90
22337;DHT22;14992;50.844;4.418;2024-01-06T05:42:39;7.90;99.90
22337;DHT22;14992;50.844;4.418;2024-01-06T05:45:10;7.90;99.90
22337;DHT22;14992;50.844;4.418;2024-01-06T05:47:41;8.00;99.90
22337;DHT22;14992;50.844;4.418;2024-01-06T05:50:10;7.90;99.90
22337;DHT22;14992;50.844;4.418;2024-01-06T05:52:39;7.90;99.90
22337;DHT22;14992;50.844;4.418;2024-01-06T05:55:08;7.90;99.90
22337;DHT22;14992;50.844;4.418;2024-01-06T05:57:38;7.90;99.90
22337;DHT22;14992;50.844;4.418;2024-01-06T06:00:09;7.80;99.90
22337;DHT22;14992;50.844;4.418;2024-01-06T06:02:38;7.80;99.90
22337;DHT22;14992;50.844;4.418;2024-01-06T06:05:09;7.80;99.90
22337;DHT22;14992;50.844;4.418;2024-01-06T06:07:38;7.70;99.90
22337;DHT22;14992;50.844;4.418;2024-01-06T06:10:08;7.70;99.90
22337;DHT22;14992;50.844;4.418;2024-01-06T06:12:38;7.70;99.90
22337;DHT22;14992;50.844;4.418;2024-01-06T06:15:08;7.80;99.90
22337;DHT22;14992;50.844;4.418;2024-01-06T06:17:37;7.70;99.90
22337;DHT22;14992;50.844;4.418;2024-01-06T06:20:06;7.60;99.90
22337;DHT22;14992;50.844;4.418;2024-01-06T06:22:37;7.60;99.90
22337;DHT22;14992;50.844;4.418;2024-01-06T06:25:06;7.50;99.90
22337;DHT22;14992;50.844;4.418;2024-01-06T06:27:36;7.50;99.90
22337;DHT22;14992;50.844;4.418;2024-01-06T06:30:10;7.50;99.90
22337;DHT22;14992;50.844;4.418;2024-01-06T06:32:39;7.40;99.90
22337;DHT22;14992;50.844;4.418;2024-01-06T06:35:08;7.40;99.90
22337;DHT22;14992;50.844;4.418;2024-01-06T06:37:38;7.50;99.90
22337;DHT22;14992;50.844;4.418;2024-01-06T06:40:08;7.50;99.90
22337;DHT22;14992;50.844;4.418;2024-01-06T06:42:37;7.40;99.90
22337;DHT22;14992;50.844;4.418;2024-01-06T06:45:07;7.40;99.90
22337;DHT22;14992;50.844;4.418;2024-01-06T06:47:38;7.40;99.90
22337;DHT22;14992;50.844;4.418;2024-01-06T06:50:07;7.30;99.90
22337;DHT22;14992;50.844;4.418;2024-01-06T06:52:38;7.30;99.90
22337;DHT22;14992;50.844;4.418;2024-01-06T06:55:07;7.30;99.90
22337;DHT22;14992;50.844;4.418;2024-01-06T06:57:36;7.20;99.90
22337;DHT22;14992;50.844;4.418;2024-01-06T07:00:06;7.20;99.90
22337;DHT22;14992;50.844;4.418;2024-01-06T07:02:36;7.10;99.90
22337;DHT22;14992;50.844;4.418;2024-01-06T07:05:06;7.10;99.90
22337;DHT22;14992;50.844;4.418;2024-01-06T07:07:35;7.10;99.90
22337;DHT22;14992;50.844;4.418;2024-01-06T07:10:07;7.00;99.90
22337;DHT22;14992;50.844;4.418;2024-01-06T07:12:35;7.00;99.90
22337;DHT22;14992;50.844;4.418;2024-01-06T07:15:05;7.00;99.90
22337;DHT22;14992;50.844;4.418;2024-01-06T07:17:35;7.10;99.90
22337;DHT22;14992;50.844;4.418;2024-01-06T07:20:05;7.00;99.90
22337;DHT22;14992;50.844;4.418;2024-01-06T07:22:35;7.10;99.90
22337;DHT22;14992;50.844;4.418;2024-01-06T07:25:06;7.00;99.90
22337;DHT22;14992;50.844;4.418;2024-01-06T07:27:36;6.90;99.90
22337;DHT22;14992;50.844;4.418;2024-01-06T07:30:06;6.80;99.90
22337;DHT22;14992;50.844;4.418;2024-01-06T07:32:35;6.80;99.90
22337;DHT22;14992;50.844;4.418;2024-01-06T07:35:04;6.80;99.90
22337;DHT22;14992;50.844;4.418;2024-01-06T07:37:34;6.80;99.90
22337;DHT22;14992;50.844;4.418;2024-01-06T07:40:05;6.80;99.90
22337;DHT22;14992;50.844;4.418;2024-01-06T07:42:34;6.70;99.90
22337;DHT22;14992;50.844;4.418;2024-01-06T07:45:05;6.70;99.90
22337;DHT22;14992;50.844;4.418;2024-01-06T07:47:34;6.70;99.90
22337;DHT22;14992;50.844;4.418;2024-01-06T07:50:03;6.80;99.90
22337;DHT22;14992;50.844;4.418;2024-01-06T07:52:32;6.80;99.90
22337;DHT22;14992;50.844;4.418;2024-01-06T07:55:01;6.90;99.90
22337;DHT22;14992;50.844;4.418;2024-01-06T07:57:32;6.90;99.90
22337;DHT22;14992;50.844;4.418;2024-01-06T08:00:01;6.90;99.90
22337;DHT22;14992;50.844;4.418;2024-01-06T08:02:38;7.00;99.90
22337;DHT22;14992;50.844;4.418;2024-01-06T08:05:08;7.00;99.90
22337;DHT22;14992;50.844;4.418;2024-01-06T08:07:37;7.10;99.90
22337;DHT22;14992;50.844;4.418;2024-01-06T08:10:07;7.10;99.90
22337;DHT22;14992;50.844;4.418;2024-01-06T08:12:38;6.90;99.90
22337;DHT22;14992;50.844;4.418;2024-01-06T08:15:08;6.90;99.90
22337;DHT22;14992;50.844;4.418;2024-01-06T08:17:38;6.80;99.90
22337;DHT22;14992;50.844;4.418;2024-01-06T08:20:09;6.80;99.90
22337;DHT22;14992;50.844;4.418;2024-01-06T08:22:39;6.80;99.90
22337;DHT22;14992;50.844;4.418;2024-01-06T08:25:08;7.00;99.90
22337;DHT22;14992;50.844;4.418;2024-01-06T08:27:39;6.90;99.90
22337;DHT22;14992;50.844;4.418;2024-01-06T08:30:09;6.90;99.90
22337;DHT22;14992;50.844;4.418;2024-01-06T08:32:38;6.80;99.90
22337;DHT22;14992;50.844;4.418;2024-01-06T08:35:08;6.80;99.90
22337;DHT22;14992;50.844;4.418;2024-01-06T08:37:36;6.80;99.90
22337;DHT22;14992;50.844;4.418;2024-01-06T08:40:07;6.80;99.90
22337;DHT22;14992;50.844;4.418;2024-01-06T08:42:36;6.90;99.90
22337;DHT22;14992;50.844;4.418;2024-01-06T08:45:07;6.70;99.90
22337;DHT22;14992;50.844;4.418;2024-01-06T08:47:37;6.70;99.90
22337;DHT22;14992;50.844;4.418;2024-01-06T08:50:07;6.70;99.90
22337;DHT22;14992;50.844;4.418;2024-01-06T08:52:36;6.80;99.90
22337;DHT22;14992;50.844;4.418;2024-01-06T08:55:06;6.90;99.90
22337;DHT22;14992;50.844;4.418;2024-01-06T08:57:34;6.80;99.90
22337;DHT22;14992;50.844;4.418;2024-01-06T09:00:07;6.70;99.90
22337;DHT22;14992;50.844;4.418;2024-01-06T09:02:37;6.70;99.90
22337;DHT22;14992;50.844;4.418;2024-01-06T09:05:07;6.70;99.90
22337;DHT22;14992;50.844;4.418;2024-01-06T09:07:36;6.80;99.90
22337;DHT22;14992;50.844;4.418;2024-01-06T09:10:06;7.00;99.90
22337;DHT22;14992;50.844;4.418;2024-01-06T09:12:36;6.90;99.90
22337;DHT22;14992;50.844;4.418;2024-01-06T09:15:07;6.90;99.90
22337;DHT22;14992;50.844;4.418;2024-01-06T09:17:36;6.90;99.90
22337;DHT22;14992;50.844;4.418;2024-01-06T09:20:06;6.80;99.90
22337;DHT22;14992;50.844;4.418;2024-01-06T09:22:35;6.70;99.90
22337;DHT22;14992;50.844;4.418;2024-01-06T09:25:05;6.60;99.90
22337;DHT22;14992;50.844;4.418;2024-01-06T09:27:34;6.60;99.90
22337;DHT22;14992;50.844;4.418;2024-01-06T09:30:03;6.60;99.90
22337;DHT22;14992;50.844;4.418;2024-01-06T09:32:34;6.60;99.90
22337;DHT22;14992;50.844;4.418;2024-01-06T09:35:03;6.60;99.90
22337;DHT22;14992;50.844;4.418;2024-01-06T09:37:32;6.60;99.90
22337;DHT22;14992;50.844;4.418;2024-01-06T09:40:01;6.60;99.90
22337;DHT22;14992;50.844;4.418;2024-01-06T09:42:30;6.50;99.90
22337;DHT22;14992;50.844;4.418;2024-01-06T09:44:59;6.40;99.90
22337;DHT22;14992;50.844;4.418;2024-01-06T09:47:28;6.30;99.90
22337;DHT22;14992;50.844;4.418;2024-01-06T09:50:08;6.20;99.90
22337;DHT22;14992;50.844;4.418;2024-01-06T09:52:39;6.10;99.90
22337;DHT22;14992;50.844;4.418;2024-01-06T09:55:11;6.20;99.90
22337;DHT22;14992;50.844;4.418;2024-01-06T09:57:40;6.20;99.90
22337;DHT22;14992;50.844;4.418;2024-01-06T10:00:09;6.10;99.90
22337;DHT22;14992;50.844;4.418;2024-01-06T10:02:39;6.10;99.90
22337;DHT22;14992;50.844;4.418;2024-01-06T10:05:10;6.10;99.90
22337;DHT22;14992;50.844;4.418;2024-01-06T10:07:41;6.10;99.90
22337;DHT22;14992;50.844;4.418;2024-01-06T10:10:11;6.10;99.90
22337;DHT22;14992;50.844;4.418;2024-01-06T10:12:41;6.10;99.90
22337;DHT22;14992;50.844;4.418;2024-01-06T10:15:11;6.20;99.90
22337;DHT22;14992;50.844;4.418;2024-01-06T10:17:41;6.20;99.90
22337;DHT22;14992;50.844;4.418;2024-01-06T10:20:12;6.20;99.90
22337;DHT22;14992;50.844;4.418;2024-01-06T10:22:43;6.10;99.90
22337;DHT22;14992;50.844;4.418;2024-01-06T10:25:12;6.20;99.90
22337;DHT22;14992;50.844;4.418;2024-01-06T10:27:42;6.30;99.90
22337;DHT22;14992;50.844;4.418;2024-01-06T10:30:12;6.40;99.90
22337;DHT22;14992;50.844;4.418;2024-01-06T10:32:45;6.40;99.90
22337;DHT22;14992;50.844;4.418;2024-01-06T10:35:16;6.40;99.90
22337;DHT22;14992;50.844;4.418;2024-01-06T10:37:47;6.40;99.90
22337;DHT22;14992;50.844;4.418;2024-01-06T10:40:16;6.30;99.90
22337;DHT22;14992;50.844;4.418;2024-01-06T10:42:45;6.40;99.90
22337;DHT22;14992;50.844;4.418;2024-01-06T10:45:15;6.40;99.90
22337;DHT22;14992;50.844;4.418;2024-01-06T10:47:45;6.30;99.90
22337;DHT22;14992;50.844;4.418;2024-01-06T10:50:17;6.30;99.90
22337;DHT22;14992;50.844;4.418;2024-01-06T10:52:47;6.30;99.90
22337;DHT22;14992;50.844;4.418;2024-01-06T10:55:16;6.30;99.90
22337;DHT22;14992;50.844;4.418;2024-01-06T10:57:48;6.20;99.90
22337;DHT22;14992;50.844;4.418;2024-01-06T11:00:20;6.30;99.90
22337;DHT22;14992;50.844;4.418;2024-01-06T11:02:49;6.20;99.90
22337;DHT22;14992;50.844;4.418;2024-01-06T11:05:23;6.30;99.90
22337;DHT22;14992;50.844;4.418;2024-01-06T11:07:52;6.30;99.90
22337;DHT22;14992;50.844;4.418;2024-01-06T11:10:23;6.30;99.90
22337;DHT22;14992;50.844;4.418;2024-01-06T11:13:11;6.30;99.90
22337;DHT22;14992;50.844;4.418;2024-01-06T11:15:44;6.40;99.90
22337;DHT22;14992;50.844;4.418;2024-01-06T11:18:33;6.30;99.90
22337;DHT22;14992;50.844;4.418;2024-01-06T11:21:17;6.30;99.90
22337;DHT22;14992;50.844;4.418;2024-01-06T11:24:19;6.40;99.90
22337;DHT22;14992;50.844;4.418;2024-01-06T11:26:52;6.40;99.90
22337;DHT22;14992;50.844;4.418;2024-01-06T11:29:21;6.30;99.90
22337;DHT22;14992;50.844;4.418;2024-01-06T11:32:28;6.30;99.90
22337;DHT22;14992;50.844;4.418;2024-01-06T11:35:05;6.40;99.90
22337;DHT22;14992;50.844;4.418;2024-01-06T11:37:50;6.40;99.90
22337;DHT22;14992;50.844;4.418;2024-01-06T11:40:24;6.40;99.90
22337;DHT22;14992;50.844;4.418;2024-01-06T11:43:01;6.40;99.90
22337;DHT22;14992;50.844;4.418;2024-01-06T11:45:31;6.20;99.90
22337;DHT22;14992;50.844;4.418;2024-01-06T11:48:01;6.10;99.90
22337;DHT22;14992;50.844;4.418;2024-01-06T11:50:32;6.10;99.90
22337;DHT22;14992;50.844;4.418;2024-01-06T11:53:03;6.10;99.90
22337;DHT22;14992;50.844;4.418;2024-01-06T11:55:34;6.10;99.90
22337;DHT22;14992;50.844;4.418;2024-01-06T11:58:03;6.10;99.90
22337;DHT22;14992;50.844;4.418;2024-01-06T12:00:33;6.20;99.90
22337;DHT22;14992;50.844;4.418;2024-01-06T12:03:04;6.30;99.90
22337;DHT22;14992;50.844;4.418;2024-01-06T12:05:33;6.30;99.90
22337;DHT22;14992;50.844;4.418;2024-01-06T12:08:05;6.40;99.90
22337;DHT22;14992;50.844;4.418;2024-01-06T12:10:35;6.30;99.90
22337;DHT22;14992;50.844;4.418;2024-01-06T12:13:06;6.20;99.90
22337;DHT22;14992;50.844;4.418;2024-01-06T12:15:37;6.20;99.90
22337;DHT22;14992;50.844;4.418;2024-01-06T12:18:07;6.20;99.90
22337;DHT22;14992;50.844;4.418;2024-01-06T12:20:37;6.20;99.90
22337;DHT22;14992;50.844;4.418;2024-01-06T12:23:07;6.20;99.90
22337;DHT22;14992;50.844;4.418;2024-01-06T12:25:36;6.20;99.90
22337;DHT22;14992;50.844;4.418;2024-01-06T12:28:07;6.20;99.90
22337;DHT22;14992;50.844;4.418;2024-01-06T12:30:38;6.20;99.90
22337;DHT22;14992;50.844;4.418;2024-01-06T12:33:08;6.20;99.90
22337;DHT22;14992;50.844;4.418;2024-01-06T12:35:38;6.40;99.90
22337;DHT22;14992;50.844;4.418;2024-01-06T12:38:10;6.40;99.90
22337;DHT22;14992;50.844;4.418;2024-01-06T12:40:38;6.40;99.90
22337;DHT22;14992;50.844;4.418;2024-01-06T12:43:08;6.50;99.90
22337;DHT22;14992;50.844;4.418;2024-01-06T12:45:38;6.40;99.90
22337;DHT22;14992;50.844;4.418;2024-01-06T12:48:07;6.50;99.90
22337;DHT22;14992;50.844;4.418;2024-01-06T12:50:36;6.50;99.90
22337;DHT22;14992;50.844;4.418;2024-01-06T12:53:05;6.60;99.90
22337;DHT22;14992;50.844;4.418;2024-01-06T12:55:35;6.50;99.90
22337;DHT22;14992;50.844;4.418;2024-01-06T12:58:04;6.60;99.90
22337;DHT22;14992;50.844;4.418;2024-01-06T13:00:33;6.60;99.90
22337;DHT22;14992;50.844;4.418;2024-01-06T13:03:04;6.70;99.90
22337;DHT22;14992;50.844;4.418;2024-01-06T13:05:33;6.70;99.90
22337;DHT22;14992;50.844;4.418;2024-01-06T13:08:03;6.70;99.90
22337;DHT22;14992;50.844;4.418;2024-01-06T13:10:32;6.70;99.90
22337;DHT22;14992;50.844;4.418;2024-01-06T13:13:03;6.60;99.90
22337;DHT22;14992;50.844;4.418;2024-01-06T13:15:33;6.70;99.90
22337;DHT22;14992;50.844;4.418;2024-01-06T13:18:02;6.70;99.90
22337;DHT22;14992;50.844;4.418;2024-01-06T13:20:31;6.70;99.90
22337;DHT22;14992;50.844;4.418;2024-01-06T13:23:00;6.70;99.90
22337;DHT22;14992;50.844;4.418;2024-01-06T13:25:31;6.70;99.90
22337;DHT22;14992;50.844;4.418;2024-01-06T13:28:00;6.60;99.90
22337;DHT22;14992;50.844;4.418;2024-01-06T13:30:30;6.60;99.90
22337;DHT22;14992;50.844;4.418;2024-01-06T13:33:00;6.50;99.90
22337;DHT22;14992;50.844;4.418;2024-01-06T13:35:28;6.40;99.90
22337;DHT22;14992;50.844;4.418;2024-01-06T13:37:58;6.40;99.90
22337;DHT22;14992;50.844;4.418;2024-01-06T13:40:27;6.30;99.90
22337;DHT22;14992;50.844;4.418;2024-01-06T13:42:57;6.30;99.90
22337;DHT22;14992;50.844;4.418;2024-01-06T13:45:26;6.30;99.90
22337;DHT22;14992;50.844;4.418;2024-01-06T13:47:56;6.20;99.90
22337;DHT22;14992;50.844;4.418;2024-01-06T13:50:25;6.20;99.90
22337;DHT22;14992;50.844;4.418;2024-01-06T13:52:54;6.20;99.90
22337;DHT22;14992;50.844;4.418;2024-01-06T13:55:23;6.20;99.90
22337;DHT22;14992;50.844;4.418;2024-01-06T13:57:52;6.30;99.90
22337;DHT22;14992;50.844;4.418;2024-01-06T14:00:21;6.20;99.90
22337;DHT22;14992;50.844;4.418;2024-01-06T14:02:50;6.20;99.90
22337;DHT22;14992;50.844;4.418;2024-01-06T14:05:23;6.30;99.90
22337;DHT22;14992;50.844;4.418;2024-01-06T14:07:52;6.20;99.90
22337;DHT22;14992;50.844;4.418;2024-01-06T14:10:21;6.10;99.90
22337;DHT22;14992;50.844;4.418;2024-01-06T14:12:49;6.10;99.90
22337;DHT22;14992;50.844;4.418;2024-01-06T14:15:19;6.10;99.90
22337;DHT22;14992;50.844;4.418;2024-01-06T14:17:48;6.10;99.90
22337;DHT22;14992;50.844;4.418;2024-01-06T14:20:17;6.20;99.90
22337;DHT22;14992;50.844;4.418;2024-01-06T14:22:48;6.10;99.90
22337;DHT22;14992;50.844;4.418;2024-01-06T14:25:17;6.20;99.90
22337;DHT22;14992;50.844;4.418;2024-01-06T14:27:47;6.30;99.90
22337;DHT22;14992;50.844;4.418;2024-01-06T14:30:16;6.30;99.90
22337;DHT22;14992;50.844;4.418;2024-01-06T14:32:45;6.30;99.90
22337;DHT22;14992;50.844;4.418;2024-01-06T14:35:14;6.40;99.90
22337;DHT22;14992;50.844;4.418;2024-01-06T14:37:43;6.60;99.90
22337;DHT22;14992;50.844;4.418;2024-01-06T14:40:14;6.50;99.90
22337;DHT22;14992;50.844;4.418;2024-01-06T14:42:44;6.50;99.90
22337;DHT22;14992;50.844;4.418;2024-01-06T14:45:13;6.40;99.90
22337;DHT22;14992;50.844;4.418;2024-01-06T14:47:42;6.40;99.90
22337;DHT22;14992;50.844;4.418;2024-01-06T14:50:12;6.40;99.90
22337;DHT22;14992;50.844;4.418;2024-01-06T14:52:41;6.30;99.90
22337;DHT22;14992;50.844;4.418;2024-01-06T14:55:10;6.40;99.90
22337;DHT22;14992;50.844;4.418;2024-01-06T14:57:40;6.40;99.90
22337;DHT22;14992;50.844;4.418;2024-01-06T15:00:11;6.30;99.90
22337;DHT22;14992;50.844;4.418;2024-01-06T15:02:40;6.30;99.90
22337;DHT22;14992;50.844;4.418;2024-01-06T15:05:09;6.40;99.90
22337;DHT22;14992;50.844;4.418;2024-01-06T15:07:38;6.20;99.90
22337;DHT22;14992;50.844;4.418;2024-01-06T15:10:07;6.20;99.90
22337;DHT22;14992;50.844;4.418;2024-01-06T15:12:39;6.30;99.90
22337;DHT22;14992;50.844;4.418;2024-01-06T15:15:09;6.20;99.90
22337;DHT22;14992;50.844;4.418;2024-01-06T15:17:38;6.20;99.90
22337;DHT22;14992;50.844;4.418;2024-01-06T15:20:08;6.20;99.90
22337;DHT22;14992;50.844;4.418;2024-01-06T15:22:37;6.10;99.90
22337;DHT22;14992;50.844;4.418;2024-01-06T15:25:08;6.10;99.90
22337;DHT22;14992;50.844;4.418;2024-01-06T15:27:38;6.10;99.90
22337;DHT22;14992;50.844;4.418;2024-01-06T15:30:09;6.00;99.90
22337;DHT22;14992;50.844;4.418;2024-01-06T15:32:40;5.90;99.90
22337;DHT22;14992;50.844;4.418;2024-01-06T15:35:09;5.80;99.90
22337;DHT22;14992;50.844;4.418;2024-01-06T15:37:38;5.80;99.90
22337;DHT22;14992;50.844;4.418;2024-01-06T15:40:08;5.80;99.90
22337;DHT22;14992;50.844;4.418;2024-01-06T15:42:38;5.90;99.90
22337;DHT22;14992;50.844;4.418;2024-01-06T15:45:09;6.00;99.90
22337;DHT22;14992;50.844;4.418;2024-01-06T15:47:39;6.00;99.90
22337;DHT22;14992;50.844;4.418;2024-01-06T15:50:08;6.10;99.90
22337;DHT22;14992;50.844;4.418;2024-01-06T15:52:37;6.10;99.90
22337;DHT22;14992;50.844;4.418;2024-01-06T15:55:07;6.20;99.90
22337;DHT22;14992;50.844;4.418;2024-01-06T15:57:38;6.10;99.90
22337;DHT22;14992;50.844;4.418;2024-01-06T16:00:11;6.10;99.90
22337;DHT22;14992;50.844;4.418;2024-01-06T16:02:40;6.00;99.90